Latest Weather Observations for Dennes Point

IDT60901

Issued at 10:41 pm EST Saturday 30 May 2015 (issued every 10 minutes, with the page automatically refreshed every 10 minutes)

About weather observations | Map of Hobart area stations | Latest observations for Hobart area | Other Formats
Station Details ID: 094255 Name: DENNES POINT Lat: -43.06 Lon: 147.36 Height: 5.67 m
Data from the previous 72 hours. | See also: Recent months at Dennes Point
Date/Time
EST
Tmp

°C
App
Tmp
°C
Dew
Point
°C
Rel
Hum
%
Delta-T

°C
Wind Press
QNH
hPa
Press
MSL
hPa
Rain
since
9 am
mm
Dir
 
Spd
km/h
Gust
km/h
Spd
kts
Gust
kts
30/10:30pm 11.0 5.8 2.6 56 3.6 NNW 19 28 10 15 999.7 999.7 1.8
30/10:00pm 11.0 6.8 1.5 52 4.0 NNW 13 22 7 12 999.9 999.9 1.8
30/09:30pm 11.0 6.9 2.3 55 3.7 NNW 13 26 7 14 1000.5 1000.5 1.8
30/09:00pm 11.0 6.4 1.8 53 3.9 N 15 28 8 15 1000.5 1000.5 1.8
30/08:30pm 10.9 6.7 1.7 53 3.9 NNW 13 33 7 18 1000.7 1000.7 1.8
30/08:00pm 10.7 6.6 2.5 57 3.5 NW 13 30 7 16 1000.9 1000.9 1.8
30/07:30pm 10.6 6.3 0.9 51 4.0 N 13 26 7 14 1001.0 1001.0 1.8
30/07:00pm 10.5 7.1 2.1 56 3.6 NNE 9 15 5 8 1001.2 1001.2 1.8
30/06:30pm 10.5 5.9 1.6 54 3.7 N 15 22 8 12 1001.3 1001.3 1.8
30/06:00pm 10.1 7.1 1.7 56 3.5 ENE 7 11 4 6 1001.1 1001.1 1.8
30/05:30pm 10.4 7.4 2.0 56 3.5 NE 7 20 4 11 1001.2 1001.2 1.8
30/05:00pm 10.2 5.9 1.1 53 3.8 W 13 24 7 13 1001.0 1001.0 1.8
30/04:30pm 10.6 5.1 1.7 54 3.7 WNW 20 41 11 22 1000.9 1000.9 1.8
30/04:16pm 10.9 4.8 0.6 49 4.2 WNW 22 41 12 22 1000.5 1000.5 1.8
30/04:04pm 11.0 1.1 1.8 53 3.9 W 43 61 23 33 1000.3 1000.3 1.8
30/04:00pm 10.9 0.5 2.0 54 3.8 W 46 59 25 32 1000.0 1000.0 1.8
30/03:30pm 11.2 0.7 1.7 52 4.0 W 46 70 25 38 999.5 999.5 1.8
30/03:00pm 10.9 -0.7 4.1 63 3.1 W 54 76 29 41 998.8 998.8 1.8
30/02:30pm 11.7 0.9 4.0 59 3.4 WSW 50 70 27 38 998.8 998.8 1.8
30/02:28pm 11.8 1.4 4.1 59 3.5 WSW 48 69 26 37 998.7 998.7 1.8
30/02:26pm 11.9 1.9 4.4 60 3.4 W 46 67 25 36 998.9 998.9 1.8
30/02:15pm 11.9 -0.3 2.9 54 4.0 W 56 82 30 44 998.6 998.6 1.8
30/02:05pm 11.5 2.8 4.0 60 3.4 W 39 80 21 43 998.8 998.8 1.8
30/02:00pm 11.3 2.7 4.7 64 3.0 W 39 57 21 31 998.9 998.9 1.8
30/01:41pm 10.7 3.0 5.5 70 2.4 W 35 57 19 31 999.2 999.2 1.8
30/01:30pm 10.4 3.2 5.8 73 2.1 W 33 50 18 27 999.2 999.2 1.8
30/01:29pm 10.5 3.6 6.3 75 2.0 W 32 50 17 27 999.2 999.2 1.8
30/01:00pm 9.9 1.5 5.7 75 1.9 W 39 61 21 33 999.7 999.7 1.6
30/12:30pm 11.4 0.3 6.5 72 2.3 W 54 78 29 42 999.1 999.1 0.8
30/12:29pm 11.5 0.8 6.6 72 2.3 W 52 78 28 42 999.1 999.1 0.8
30/12:06pm 15.0 8.6 5.0 51 4.7 WNW 28 57 15 31 997.5 997.5 0.0
30/12:00pm 15.4 9.9 5.9 53 4.6 NW 24 35 13 19 997.5 997.5 0.0
30/11:37am 15.2 8.5 5.7 53 4.5 WNW 30 48 16 26 998.3 998.3 0.0
30/11:30am 14.9 9.2 6.7 58 4.0 WNW 26 41 14 22 998.3 998.3 0.0
30/11:00am 14.6 8.3 7.4 62 3.6 NW 30 52 16 28 999.0 999.0 0.0
30/10:43am 14.9 8.5 7.0 59 3.9 NW 30 50 16 27 999.4 999.4 0.0
30/10:30am 14.9 8.4 6.5 57 4.1 NW 30 41 16 22 999.6 999.6 0.0
30/10:00am 14.1 9.8 7.2 63 3.4 N 19 50 10 27 1000.0 1000.0 0.0
30/09:30am 13.6 10.7 6.7 63 3.3 NNW 11 15 6 8 1001.2 1001.2 0.0
30/09:00am 13.0 8.9 7.9 71 2.5 N 19 24 10 13 1002.4 1002.3 0.0
30/08:30am 13.4 9.4 6.7 64 3.2 N 17 24 9 13 1003.0 1003.0 0.0
30/08:00am 12.6 7.8 7.5 71 2.5 N 22 32 12 17 1003.4 1003.4 0.0
30/07:30am 12.4 6.8 7.3 71 2.5 N 26 35 14 19 1003.8 1003.8 0.0
30/07:00am 12.4 7.2 7.3 71 2.5 N 24 28 13 15 1004.4 1004.4 0.0
30/06:30am 12.3 7.9 7.2 71 2.5 N 20 26 11 14 1004.7 1004.7 0.0
30/06:00am 12.1 8.8 6.6 69 2.6 NW 13 22 7 12 1005.5 1005.5 0.0
30/05:30am 12.0 8.8 6.7 70 2.5 NW 13 17 7 9 1005.6 1005.6 0.0
30/05:00am 12.1 7.6 7.0 71 2.5 NNW 20 28 11 15 1006.1 1006.1 0.0
30/04:30am 12.1 8.4 6.4 68 2.7 NW 15 26 8 14 1006.4 1006.4 0.0
30/04:00am 12.2 8.2 6.7 69 2.6 NW 17 26 9 14 1007.1 1007.1 0.0
30/03:30am 12.1 8.8 6.4 68 2.7 NNW 13 20 7 11 1007.3 1007.3 0.0
30/03:00am 11.8 7.9 6.9 72 2.3 NNW 17 22 9 12 1007.7 1007.7 0.0
30/02:30am 11.7 8.4 6.6 71 2.4 NNW 13 20 7 11 1008.4 1008.4 0.0
30/02:00am 11.4 8.5 6.5 72 2.3 NNW 11 15 6 8 1008.5 1008.5 0.0
30/01:30am 11.4 8.2 6.7 73 2.2 NNW 13 20 7 11 1008.8 1008.8 0.0
30/01:00am 11.4 8.2 6.7 73 2.2 NNW 13 20 7 11 1009.3 1009.3 0.0
30/12:30am 11.7 6.8 7.0 73 2.2 N 22 26 12 14 1009.5 1009.5 0.0
30/12:00am 11.6 7.2 7.3 75 2.1 NNW 20 28 11 15 1010.0 1010.0 0.0
 
Date/Time
EST
Tmp

°C
App
Tmp
°C
Dew
Point
°C
Rel
Hum
%
Delta-T

°C
Wind Press
QNH
hPa
Press
MSL
hPa
Rain
since
9 am
mm
Dir
 
Spd
km/h
Gust
km/h
Spd
kts
Gust
kts
29/11:30pm 11.1 7.1 6.5 73 2.2 NNW 17 24 9 13 1010.1 1010.1 0.0
29/11:00pm 11.1 7.4 6.3 72 2.3 NNW 15 22 8 12 1010.2 1010.2 0.0
29/10:30pm 10.9 6.4 6.1 72 2.2 NNW 19 26 10 14 1010.4 1010.4 0.0
29/10:00pm 10.9 5.8 6.1 72 2.2 NNW 22 28 12 15 1010.6 1010.6 0.0
29/09:30pm 10.7 5.9 5.7 71 2.3 NW 20 28 11 15 1010.7 1010.7 0.0
29/09:00pm 10.5 6.0 6.1 74 2.0 NW 19 28 10 15 1010.9 1010.9 0.0
29/08:30pm 10.9 6.2 5.9 71 2.3 NW 20 28 11 15 1011.0 1011.0 0.0
29/08:00pm 10.8 6.1 6.0 72 2.2 NNW 20 26 11 14 1010.9 1010.9 0.0
29/07:30pm 10.7 5.9 5.5 70 2.4 NW 20 28 11 15 1010.8 1010.8 0.0
29/07:00pm 10.7 6.5 5.5 70 2.4 NNW 17 22 9 12 1010.8 1010.8 0.0
29/06:30pm 10.9 6.2 5.2 68 2.6 NNW 19 26 10 14 1010.8 1010.8 0.0
29/06:00pm 10.9 6.2 5.0 67 2.7 NNW 19 24 10 13 1010.8 1010.8 0.0
29/05:30pm 10.7 6.8 5.3 69 2.5 NNW 15 19 8 10 1010.8 1010.8 0.0
29/05:00pm 11.2 6.8 4.7 64 2.9 NW 17 30 9 16 1010.7 1010.7 0.0
29/04:30pm 11.2 5.8 4.4 63 3.1 WNW 22 35 12 19 1010.9 1010.9 0.0
29/04:00pm 11.7 6.7 4.4 61 3.3 WNW 20 32 11 17 1010.9 1010.9 0.0
29/03:30pm 11.6 5.7 4.1 60 3.4 WNW 24 37 13 20 1010.7 1010.7 0.0
29/03:00pm 11.9 6.4 3.9 58 3.6 WNW 22 39 12 21 1010.6 1010.6 0.0
29/02:30pm 12.5 8.1 4.5 58 3.6 WNW 17 24 9 13 1010.2 1010.2 0.0
29/02:00pm 12.1 9.5 4.1 58 3.6 WNW 7 19 4 10 1010.5 1010.5 0.0
29/01:30pm 11.8 7.6 3.6 57 3.6 W 15 24 8 13 1010.2 1010.2 0.0
29/01:00pm 11.4 7.8 2.9 56 3.7 W 11 20 6 11 1010.4 1010.4 0.0
29/12:30pm 11.4 8.6 3.4 58 3.5 WNW 7 13 4 7 1010.6 1010.6 0.0
29/12:00pm 11.1 7.5 2.9 57 3.6 WNW 11 32 6 17 1010.5 1010.5 0.0
29/11:30am 11.2 6.8 2.5 55 3.7 NNW 15 22 8 12 1010.6 1010.6 0.0
29/11:00am 11.2 8.7 1.7 52 4.0 WNW 4 11 2 6 1010.9 1010.9 0.0
29/10:30am 11.0 8.7 2.6 56 3.6 N 4 7 2 4 1011.0 1011.0 0.0
29/10:00am 10.2 6.4 3.7 64 2.9 NW 13 19 7 10 1010.9 1010.9 0.0
29/09:30am 9.2 4.8 2.8 64 2.7 NW 15 24 8 13 1010.8 1010.8 0.0
29/09:00am 8.6 3.4 2.6 66 2.5 NW 19 26 10 14 1011.1 1011.1 2.2
29/08:30am 8.3 3.8 2.3 66 2.5 NW 15 19 8 10 1010.9 1010.9 2.2
29/08:00am 7.8 2.9 1.9 66 2.4 WNW 17 30 9 16 1010.2 1010.2 2.2
29/07:30am 7.5 4.1 1.6 66 2.4 NNW 9 17 5 9 1009.9 1009.9 2.2
29/07:00am 7.8 4.1 2.3 68 2.3 NNW 11 24 6 13 1009.5 1009.5 2.2
29/06:30am 7.5 2.7 2.8 72 2.0 NNW 17 26 9 14 1009.1 1009.1 2.2
29/06:00am 7.0 3.3 2.1 71 2.0 WNW 11 20 6 11 1008.7 1008.7 2.2
29/05:30am 7.0 1.7 2.1 71 2.0 NW 19 26 10 14 1008.2 1008.2 2.2
29/05:00am 5.5 2.8 2.8 83 1.1 ESE 6 9 3 5 1008.1 1008.1 2.2
29/04:30am 5.6 1.6 2.8 82 1.1 W 13 19 7 10 1008.1 1008.1 2.2
29/04:12am 6.1 -1.4 3.6 84 1.1 WSW 32 50 17 27 1007.9 1007.9 2.0
29/04:00am 6.9 -0.2 3.3 78 1.5 W 30 39 16 21 1008.0 1008.0 0.4
29/03:30am 8.2 3.0 2.7 68 2.3 WNW 19 28 10 15 1007.1 1007.1 0.0
29/03:00am 8.6 0.4 2.8 67 2.5 WNW 35 48 19 26 1006.4 1006.4 0.0
29/02:30am 8.9 2.8 2.5 64 2.7 WNW 24 41 13 22 1006.1 1006.1 0.0
29/02:00am 8.7 1.9 2.9 67 2.5 WNW 28 37 15 20 1006.3 1006.3 0.0
29/01:30am 9.1 0.5 2.7 64 2.7 WNW 37 59 20 32 1006.0 1006.0 0.0
29/01:21am 9.1 1.3 2.7 64 2.7 WNW 33 54 18 29 1005.9 1005.9 0.0
29/01:00am 9.1 3.0 2.9 65 2.7 WNW 24 39 13 21 1005.8 1005.8 0.0
29/12:30am 9.0 3.3 2.6 64 2.7 WNW 22 37 12 20 1005.9 1005.9 0.0
29/12:19am 9.3 2.5 2.9 64 2.7 WNW 28 48 15 26 1006.1 1006.1 0.0
29/12:00am 9.6 2.4 2.9 63 2.9 WNW 30 46 16 25 1005.8 1005.8 0.0
 
Date/Time
EST
Tmp

°C
App
Tmp
°C
Dew
Point
°C
Rel
Hum
%
Delta-T

°C
Wind Press
QNH
hPa
Press
MSL
hPa
Rain
since
9 am
mm
Dir
 
Spd
km/h
Gust
km/h
Spd
kts
Gust
kts
28/11:42pm 9.9 3.0 2.3 59 3.2 WNW 28 48 15 26 1005.4 1005.4 0.0
28/11:30pm 9.9 3.4 2.5 60 3.1 WNW 26 43 14 23 1005.4 1005.4 0.0
28/11:00pm 10.1 4.9 2.7 60 3.2 NW 19 33 10 18 1005.3 1005.3 0.0
28/10:30pm 10.4 4.3 2.5 58 3.4 WNW 24 39 13 21 1005.4 1005.4 0.0
28/10:00pm 10.6 5.4 3.4 61 3.2 NNW 20 33 11 18 1005.6 1005.6 0.0
28/09:30pm 10.8 4.9 4.0 63 3.0 NNW 24 33 13 18 1005.3 1005.3 0.0
28/09:00pm 10.8 4.6 4.5 65 2.8 NNW 26 39 14 21 1005.0 1005.0 0.0
28/08:30pm 10.8 5.9 5.3 69 2.5 NNW 20 32 11 17 1005.0 1005.0 0.0
28/08:00pm 10.4 6.6 5.6 72 2.2 WNW 15 32 8 17 1005.4 1005.4 0.0
28/07:30pm 10.7 8.0 5.5 70 2.4 WNW 9 15 5 8 1004.9 1004.9 0.0
28/07:00pm 10.7 6.8 5.3 69 2.5 WNW 15 24 8 13 1004.7 1004.7 0.0
28/06:30pm 10.3 7.7 5.9 74 2.0 WNW 9 13 5 7 1004.6 1004.6 0.0
28/06:00pm 10.3 8.1 6.3 76 1.9 SW 7 13 4 7 1004.6 1004.6 0.0
28/05:30pm 11.1 7.6 7.0 76 2.0 SW 15 24 8 13 1004.8 1004.8 0.0
28/05:00pm 11.6 7.1 6.9 73 2.3 W 20 28 11 15 1004.3 1004.3 0.0
28/04:30pm 13.2 8.5 7.9 70 2.6 W 22 32 12 17 1003.7 1003.7 0.0
28/04:00pm 13.7 10.4 8.1 69 2.8 N 15 20 8 11 1003.1 1003.1 0.0
28/03:30pm 13.9 9.7 8.3 69 2.8 N 20 26 11 14 1002.9 1002.9 0.0
28/03:00pm 13.9 9.6 7.9 67 3.0 N 20 30 11 16 1003.1 1003.1 0.0
28/02:30pm 15.2 11.8 7.5 60 3.8 N 15 24 8 13 1003.2 1003.2 0.0
28/02:00pm 14.4 10.2 7.5 63 3.4 NNW 19 26 10 14 1004.1 1004.1 0.0
28/01:30pm 15.2 8.6 6.2 55 4.3 NNW 30 44 16 24 1004.4 1004.4 0.0
28/01:17pm 15.7 9.5 6.2 53 4.6 N 28 46 15 25 1004.1 1004.1 0.0
28/01:00pm 15.1 10.3 7.2 59 3.9 NNW 22 44 12 24 1004.2 1004.2 0.0
28/12:30pm 15.2 10.6 6.7 57 4.1 NNW 20 30 11 16 1004.9 1004.9 0.0
28/12:00pm 15.5 10.3 7.3 58 4.1 N 24 33 13 18 1005.6 1005.6 0.0
28/11:30am 15.1 10.7 7.4 60 3.8 NNW 20 32 11 17 1006.1 1006.1 0.0
28/11:00am 15.1 10.6 6.9 58 4.0 N 20 26 11 14 1006.9 1006.9 0.0
28/10:30am 14.8 13.0 7.8 63 3.5 NNW 7 13 4 7 1007.7 1007.7 0.0
28/10:00am 13.9 10.4 7.4 65 3.2 N 15 19 8 10 1008.0 1008.0 0.0
28/09:30am 13.4 9.1 7.2 66 3.0 NNW 19 26 10 14 1008.3 1008.3 0.0
28/09:00am 14.0 10.3 6.4 60 3.7 NNW 15 20 8 11 1008.3 1008.3 0.0
28/08:30am 13.5 9.4 6.1 61 3.5 NNW 17 24 9 13 1008.4 1008.4 0.0
28/08:00am 13.4 9.3 6.3 62 3.4 NNW 17 22 9 12 1008.6 1008.6 0.0
28/07:30am 13.4 9.3 6.0 61 3.5 NNW 17 24 9 13 1008.7 1008.7 0.0
28/07:00am 12.9 9.2 6.3 64 3.1 NNW 15 20 8 11 1008.6 1008.6 0.0
28/06:30am 13.3 8.9 6.6 64 3.2 NNW 19 24 10 13 1008.5 1008.5 0.0
28/06:00am 13.4 9.5 7.2 66 3.0 NNW 17 24 9 13 1008.4 1008.4 0.0
28/05:30am 13.4 9.5 7.2 66 3.0 NNW 17 20 9 11 1008.5 1008.5 0.0
28/05:00am 13.8 10.6 6.9 63 3.4 NNW 13 17 7 9 1008.7 1008.7 0.0
28/04:30am 13.3 11.3 7.1 66 3.0 NNW 7 9 4 5 1009.1 1009.1 0.0
28/04:00am 14.5 10.9 6.6 59 3.8 NNW 15 26 8 14 1009.5 1009.5 0.0
28/03:30am 13.7 10.7 7.5 66 3.0 NNW 13 19 7 10 1009.5 1009.5 0.0
28/03:00am 14.3 10.8 7.4 63 3.4 NNW 15 24 8 13 1009.8 1009.8 0.0
28/02:30am 14.2 10.3 7.3 63 3.4 NNW 17 22 9 12 1010.0 1010.0 0.0
28/02:00am 13.9 10.4 7.2 64 3.3 NNW 15 22 8 12 1010.1 1010.1 0.0
28/01:30am 14.5 11.2 6.3 58 3.9 NNW 13 19 7 10 1010.0 1010.0 0.0
28/01:00am 14.7 11.4 6.5 58 4.0 NW 13 24 7 13 1010.3 1010.3 0.0
28/12:30am 13.4 11.1 7.4 67 2.9 W 9 15 5 8 1010.8 1010.8 0.0
28/12:00am 12.4 11.6 8.1 75 2.1 SSE 2 6 1 3 1011.1 1011.1 0.0
 
Date/Time
EST
Tmp

°C
App
Tmp
°C
Dew
Point
°C
Rel
Hum
%
Delta-T

°C
Wind Press
QNH
hPa
Press
MSL
hPa
Rain
since
9 am
mm
Dir
 
Spd
km/h
Gust
km/h
Spd
kts
Gust
kts
27/11:30pm 12.6 11.7 9.2 80 1.7 SW 4 6 2 3 1011.4 1011.4 0.0
27/11:00pm 13.0 10.9 9.6 80 1.7 N 11 17 6 9 1011.1 1011.1 0.0

Latest Capital City Observations: Canberra | Sydney | Melbourne | Brisbane | Adelaide | Perth | Hobart | Darwin

Other Formats:

Comma delimited format used in spreadsheet applications
http://www.bom.gov.au/fwo/IDT60901/IDT60901.94988.axf

JavaScript Object Notation format (JSON) in row-major order
http://www.bom.gov.au/fwo/IDT60901/IDT60901.94988.json